createdAt,value
2018-07-28T00:00:28.778Z,99.90
2018-07-28T00:02:59.594Z,99.90
2018-07-28T00:05:30.740Z,99.90
2018-07-28T00:08:01.686Z,99.90
2018-07-28T00:10:32.715Z,99.90
2018-07-28T00:13:03.458Z,99.90
2018-07-28T00:15:35.029Z,99.90
2018-07-28T00:18:05.897Z,99.90
2018-07-28T00:20:37.009Z,99.90
2018-07-28T00:23:08.437Z,99.90
2018-07-28T00:25:43.067Z,99.90
2018-07-28T00:28:14.004Z,99.90
2018-07-28T00:30:44.924Z,99.90
2018-07-28T00:33:16.040Z,99.90
2018-07-28T00:35:47.237Z,99.90
2018-07-28T00:38:18.299Z,99.90
2018-07-28T00:43:19.203Z,99.90
2018-07-28T00:48:20.415Z,99.90
2018-07-28T00:50:51.250Z,99.90
2018-07-28T00:53:22.874Z,99.90
2018-07-28T00:55:54.125Z,99.90
2018-07-28T00:58:24.958Z,99.90
2018-07-28T01:00:55.914Z,99.90
2018-07-28T01:03:27.125Z,99.90
2018-07-28T01:05:57.784Z,99.90
2018-07-28T01:08:29.041Z,99.90
2018-07-28T01:13:29.881Z,99.90
2018-07-28T01:16:01.371Z,99.90
2018-07-28T01:18:32.296Z,99.90
2018-07-28T01:21:03.065Z,99.90
2018-07-28T01:23:34.585Z,99.90
2018-07-28T01:26:05.379Z,99.90
2018-07-28T01:28:36.469Z,99.90
2018-07-28T01:31:08.120Z,99.90
2018-07-28T01:33:39.109Z,99.90
2018-07-28T01:36:09.983Z,99.90
2018-07-28T01:38:41.180Z,99.90
2018-07-28T01:41:11.883Z,99.90
2018-07-28T01:43:42.974Z,99.90
2018-07-28T01:46:13.725Z,99.90
2018-07-28T01:48:45.066Z,99.90
2018-07-28T01:51:16.026Z,99.90
2018-07-28T01:53:47.381Z,99.90
2018-07-28T01:56:18.317Z,99.90
2018-07-28T01:58:49.018Z,99.90
2018-07-28T02:01:19.769Z,99.90
2018-07-28T02:03:51.154Z,99.90
2018-07-28T02:06:22.298Z,99.90
2018-07-28T02:08:53.226Z,99.90
2018-07-28T02:13:54.577Z,99.90
2018-07-28T02:16:25.798Z,99.90
2018-07-28T02:18:56.770Z,99.90
2018-07-28T02:21:27.667Z,99.90
2018-07-28T02:23:59.133Z,99.90
2018-07-28T02:26:30.095Z,99.90
2018-07-28T02:29:01.261Z,99.90
2018-07-28T02:31:32.763Z,99.90
2018-07-28T02:34:03.426Z,99.90
2018-07-28T02:36:34.202Z,99.90
2018-07-28T02:39:07.760Z,99.90
2018-07-28T02:41:38.949Z,99.90
2018-07-28T02:44:10.133Z,99.90
2018-07-28T02:46:41.444Z,99.90
2018-07-28T02:49:12.535Z,99.90
2018-07-28T02:51:43.633Z,99.90
2018-07-28T02:54:14.845Z,99.90
2018-07-28T02:56:45.573Z,99.90
2018-07-28T03:01:47.414Z,99.90
2018-07-28T03:04:18.499Z,99.90
2018-07-28T03:06:49.354Z,99.90
2018-07-28T03:09:21.046Z,99.90
2018-07-28T03:11:51.970Z,99.90
2018-07-28T03:14:23.216Z,99.90
2018-07-28T03:16:54.668Z,99.90
2018-07-28T03:19:25.597Z,99.90
2018-07-28T03:21:56.418Z,99.90
2018-07-28T03:24:27.497Z,99.90
2018-07-28T03:26:58.344Z,99.90
2018-07-28T03:29:29.265Z,99.90
2018-07-28T03:32:00.381Z,99.90
2018-07-28T03:34:31.849Z,99.90
2018-07-28T03:37:02.652Z,99.90
2018-07-28T03:39:33.561Z,99.90
2018-07-28T03:42:04.514Z,99.90
2018-07-28T03:44:35.297Z,99.90
2018-07-28T03:47:06.261Z,99.90
2018-07-28T03:49:36.753Z,99.90
2018-07-28T03:52:07.324Z,99.90
2018-07-28T03:57:08.478Z,99.90
2018-07-28T03:59:39.601Z,99.90
2018-07-28T04:02:10.149Z,99.90
2018-07-28T04:04:41.507Z,99.90
2018-07-28T04:07:12.448Z,99.90
2018-07-28T04:09:43.562Z,99.90
2018-07-28T04:12:14.836Z,99.90
2018-07-28T04:14:45.739Z,99.90
2018-07-28T04:17:18.492Z,99.90
2018-07-28T04:19:50.164Z,99.90
2018-07-28T04:22:20.965Z,99.90
2018-07-28T04:24:52.132Z,99.90
2018-07-28T04:27:22.977Z,99.90
2018-07-28T04:29:53.985Z,99.90
2018-07-28T04:32:24.829Z,99.90
2018-07-28T04:34:55.589Z,99.90
2018-07-28T04:37:26.291Z,99.90
2018-07-28T04:39:57.681Z,99.90
2018-07-28T04:42:28.530Z,99.90
2018-07-28T04:44:59.498Z,99.90
2018-07-28T04:47:30.060Z,99.90
2018-07-28T04:50:01.253Z,99.90
2018-07-28T04:52:31.801Z,99.90
2018-07-28T04:55:02.773Z,99.90
2018-07-28T04:57:33.448Z,99.90
2018-07-28T05:00:04.288Z,99.90
2018-07-28T05:02:35.865Z,99.90
2018-07-28T05:05:06.618Z,99.90
2018-07-28T05:07:38.665Z,99.90
2018-07-28T05:10:09.898Z,99.90
2018-07-28T05:12:40.505Z,99.90
2018-07-28T05:15:11.581Z,99.90
2018-07-28T05:17:42.422Z,99.90
2018-07-28T05:20:13.109Z,99.90
2018-07-28T05:22:44.836Z,99.90
2018-07-28T05:25:16.078Z,99.90
2018-07-28T05:27:46.757Z,99.90
2018-07-28T05:30:17.842Z,99.90
2018-07-28T05:32:56.863Z,99.90
2018-07-28T05:35:30.574Z,99.90
2018-07-28T05:38:02.222Z,99.90
2018-07-28T05:43:16.783Z,99.90
2018-07-28T05:45:47.345Z,99.90
2018-07-28T05:48:17.968Z,99.90
2018-07-28T05:50:49.689Z,99.90
2018-07-28T05:53:22.678Z,99.90
2018-07-28T05:55:58.567Z,99.90
2018-07-28T06:01:03.493Z,99.90
2018-07-28T06:03:34.609Z,99.90
2018-07-28T06:06:09.076Z,99.90
2018-07-28T06:08:45.538Z,99.90
2018-07-28T06:11:16.881Z,99.90
2018-07-28T06:13:47.685Z,99.90
2018-07-28T06:16:18.621Z,99.90
2018-07-28T06:21:21.597Z,99.90
2018-07-28T06:23:52.336Z,99.90
2018-07-28T06:26:24.549Z,99.90
2018-07-28T06:28:57.012Z,99.90
2018-07-28T06:33:58.130Z,99.90
2018-07-28T06:36:34.486Z,99.90
2018-07-28T06:39:07.912Z,99.90
2018-07-28T06:41:39.105Z,99.90
2018-07-28T06:46:41.757Z,99.90
2018-07-28T06:49:12.312Z,99.90
2018-07-28T06:54:15.348Z,99.90
2018-07-28T06:56:45.820Z,99.90
2018-07-28T06:59:16.313Z,99.90
2018-07-28T07:01:47.561Z,99.90
2018-07-28T07:04:18.181Z,99.90
2018-07-28T07:06:49.069Z,99.90
2018-07-28T07:09:20.222Z,99.90
2018-07-28T07:11:51.188Z,99.90
2018-07-28T07:16:52.426Z,99.90
2018-07-28T07:19:22.945Z,99.90
2018-07-28T07:21:53.485Z,99.90
2018-07-28T07:26:55.537Z,99.90
2018-07-28T07:29:26.072Z,99.90
2018-07-28T07:31:56.961Z,99.90
2018-07-28T07:34:27.756Z,99.90
2018-07-28T07:36:58.881Z,99.90
2018-07-28T07:39:31.042Z,99.90
2018-07-28T07:42:02.177Z,99.90
2018-07-28T07:44:33.134Z,99.90
2018-07-28T07:47:04.230Z,99.90
2018-07-28T07:52:06.571Z,99.90
2018-07-28T07:54:37.850Z,99.90
2018-07-28T07:57:09.750Z,99.90
2018-07-28T07:59:40.979Z,99.90
2018-07-28T08:02:12.797Z,99.90
2018-07-28T08:04:43.933Z,99.90
2018-07-28T08:07:15.066Z,99.90
2018-07-28T08:09:46.253Z,99.90
2018-07-28T08:12:17.257Z,99.90
2018-07-28T08:14:48.127Z,99.90
2018-07-28T08:17:19.481Z,99.90
2018-07-28T08:19:49.995Z,99.90
2018-07-28T08:22:20.842Z,99.90
2018-07-28T08:24:51.898Z,99.90
2018-07-28T08:27:22.921Z,99.90
2018-07-28T08:29:53.429Z,99.90
2018-07-28T08:32:25.831Z,99.90
2018-07-28T08:34:56.680Z,99.90
2018-07-28T08:37:27.728Z,99.90
2018-07-28T08:39:58.516Z,99.90
2018-07-28T08:42:30.410Z,99.90
2018-07-28T08:45:01.822Z,99.90
2018-07-28T08:47:32.814Z,99.90
2018-07-28T08:50:03.383Z,99.90
2018-07-28T08:52:35.018Z,99.90
2018-07-28T08:55:05.968Z,99.90
2018-07-28T08:57:36.981Z,99.90
2018-07-28T09:00:09.390Z,99.90
2018-07-28T09:02:41.146Z,99.90
2018-07-28T09:05:11.966Z,99.90
2018-07-28T09:07:43.137Z,99.90
2018-07-28T09:10:13.589Z,99.90
2018-07-28T09:12:44.526Z,99.90
2018-07-28T09:15:15.040Z,99.90
2018-07-28T09:17:45.976Z,99.90
2018-07-28T09:20:16.490Z,99.90
2018-07-28T09:22:47.072Z,99.90
2018-07-28T09:25:17.961Z,99.90
2018-07-28T09:27:49.442Z,99.90
2018-07-28T09:30:20.914Z,99.90
2018-07-28T09:32:51.677Z,99.90
2018-07-28T09:35:22.388Z,99.90
2018-07-28T09:37:52.906Z,99.90
2018-07-28T09:40:23.928Z,99.90
2018-07-28T09:42:57.961Z,99.90
2018-07-28T09:45:28.456Z,99.90
2018-07-28T09:47:59.386Z,99.90
2018-07-28T09:50:29.923Z,99.90
2018-07-28T09:53:02.746Z,99.90
2018-07-28T09:55:33.470Z,99.90
2018-07-28T09:58:05.468Z,99.90
2018-07-28T10:00:41.858Z,99.90
2018-07-28T10:05:43.023Z,99.90
2018-07-28T10:08:14.314Z,99.90
2018-07-28T10:10:44.942Z,99.90
2018-07-28T10:13:15.798Z,99.90
2018-07-28T10:15:46.401Z,99.90
2018-07-28T10:18:17.566Z,99.90
2018-07-28T10:20:48.159Z,99.90
2018-07-28T10:23:18.819Z,99.90
2018-07-28T10:25:49.385Z,99.90
2018-07-28T10:28:20.595Z,99.90
2018-07-28T10:33:21.483Z,99.90
2018-07-28T10:35:52.544Z,99.90
2018-07-28T10:38:23.338Z,99.90
2018-07-28T10:40:53.909Z,99.90
2018-07-28T10:43:25.420Z,99.90
2018-07-28T10:45:56.323Z,99.90
2018-07-28T10:48:27.554Z,99.90
2018-07-28T10:50:58.332Z,99.90
2018-07-28T10:53:29.460Z,99.90
2018-07-28T10:58:30.133Z,99.90
2018-07-28T11:01:01.202Z,99.90
2018-07-28T11:03:32.737Z,99.90
2018-07-28T11:06:03.381Z,99.90
2018-07-28T11:08:38.840Z,99.90
2018-07-28T11:11:13.332Z,99.90
2018-07-28T11:13:45.690Z,99.90
2018-07-28T11:16:16.857Z,99.90
2018-07-28T11:18:48.488Z,99.90
2018-07-28T11:21:19.838Z,99.90
2018-07-28T11:23:59.035Z,99.90
2018-07-28T11:26:30.048Z,99.90
2018-07-28T11:29:01.015Z,99.90
2018-07-28T11:31:42.046Z,99.90
2018-07-28T11:34:23.526Z,99.90
2018-07-28T11:37:04.989Z,99.90
2018-07-28T11:39:46.624Z,99.60
2018-07-28T11:44:31.198Z,98.60
2018-07-28T11:47:01.780Z,98.10
2018-07-28T11:49:32.306Z,95.90
2018-07-28T11:52:03.257Z,94.90
2018-07-28T11:54:33.960Z,93.40
2018-07-28T11:57:04.777Z,92.10
2018-07-28T11:59:35.261Z,90.80
2018-07-28T12:02:07.410Z,90.60
2018-07-28T12:04:38.463Z,89.40
2018-07-28T12:07:09.552Z,86.60
2018-07-28T12:09:40.790Z,85.40
2018-07-28T12:12:11.682Z,84.90
2018-07-28T12:14:42.270Z,82.30
2018-07-28T12:17:13.238Z,80.90
2018-07-28T12:19:43.746Z,80.60
2018-07-28T12:22:14.713Z,79.40
2018-07-28T12:24:49.956Z,77.80
2018-07-28T12:27:21.891Z,77.20
2018-07-28T12:29:54.638Z,76.10
2018-07-28T12:32:25.113Z,75.40
2018-07-28T12:39:27.403Z,74.00
2018-07-28T12:41:57.878Z,73.60
2018-07-28T12:44:28.529Z,73.10
2018-07-28T12:46:59.010Z,73.10
2018-07-28T12:54:01.809Z,70.60
2018-07-28T13:01:03.693Z,69.50
2018-07-28T13:03:34.153Z,68.10
2018-07-28T13:08:41.453Z,68.80
2018-07-28T13:11:12.199Z,70.40
2018-07-28T13:16:13.211Z,73.20
2018-07-28T13:18:54.037Z,74.00
2018-07-28T13:21:24.509Z,73.80
2018-07-28T13:23:55.505Z,75.20
2018-07-28T13:26:26.129Z,76.50
2018-07-28T13:28:56.994Z,77.60
2018-07-28T13:36:09.299Z,78.70
2018-07-28T13:38:50.775Z,86.50
2018-07-28T13:41:21.842Z,93.90
2018-07-28T13:48:24.901Z,99.90
2018-07-28T13:51:06.336Z,99.90
2018-07-28T13:53:39.840Z,99.90
2018-07-28T13:56:21.464Z,99.90
2018-07-28T14:03:34.086Z,99.90
2018-07-28T14:06:04.844Z,99.90
2018-07-28T14:08:36.005Z,99.90
2018-07-28T14:11:07.240Z,99.90
2018-07-28T14:13:38.215Z,99.90
2018-07-28T14:16:09.325Z,99.90
2018-07-28T14:18:40.163Z,99.90
2018-07-28T14:21:12.329Z,99.90
2018-07-28T14:23:43.656Z,99.90
2018-07-28T14:26:14.609Z,99.90
2018-07-28T14:28:45.128Z,99.90
2018-07-28T14:31:16.068Z,99.90
2018-07-28T14:33:46.564Z,99.90
2018-07-28T14:36:17.417Z,99.90
2018-07-28T14:38:48.654Z,99.90
2018-07-28T14:41:20.051Z,99.90
2018-07-28T14:43:50.582Z,99.90
2018-07-28T14:46:23.174Z,99.90
2018-07-28T14:48:53.640Z,99.90
2018-07-28T14:51:24.113Z,99.90
2018-07-28T14:53:54.613Z,99.90
2018-07-28T14:56:25.646Z,99.90
2018-07-28T14:58:56.157Z,99.90
2018-07-28T15:01:27.050Z,99.90
2018-07-28T15:03:57.806Z,99.90
2018-07-28T15:06:28.426Z,99.90
2018-07-28T15:08:58.910Z,99.90
2018-07-28T15:11:31.413Z,99.90
2018-07-28T15:14:02.046Z,99.90
2018-07-28T15:16:32.676Z,99.90
2018-07-28T15:19:03.262Z,99.90
2018-07-28T15:21:34.230Z,99.90
2018-07-28T15:24:05.096Z,99.90
2018-07-28T15:26:35.594Z,99.90
2018-07-28T15:31:37.569Z,99.90
2018-07-28T15:34:08.062Z,99.90
2018-07-28T15:36:38.718Z,99.90
2018-07-28T15:39:10.534Z,99.90
2018-07-28T15:41:40.997Z,99.90
2018-07-28T15:44:11.486Z,99.90
2018-07-28T15:46:42.293Z,99.90
2018-07-28T15:49:12.810Z,99.90
2018-07-28T15:51:43.649Z,99.90
2018-07-28T15:54:14.479Z,99.90
2018-07-28T15:56:45.292Z,99.90
2018-07-28T15:59:15.770Z,99.90
2018-07-28T16:01:46.925Z,99.90
2018-07-28T16:04:17.418Z,99.90
2018-07-28T16:06:48.001Z,99.90
2018-07-28T16:09:18.979Z,99.90
2018-07-28T16:11:49.921Z,99.90
2018-07-28T16:16:51.118Z,99.90
2018-07-28T16:19:21.614Z,99.90
2018-07-28T16:21:52.595Z,99.90
2018-07-28T16:24:23.177Z,99.90
2018-07-28T16:26:54.473Z,99.90
2018-07-28T16:29:24.990Z,99.90
2018-07-28T16:31:58.453Z,99.90
2018-07-28T16:37:00.458Z,99.90
2018-07-28T16:42:01.493Z,99.90
2018-07-28T16:47:02.013Z,99.90
2018-07-28T16:49:32.781Z,99.90
2018-07-28T16:52:03.338Z,99.90
2018-07-28T16:54:34.209Z,99.90
2018-07-28T16:57:04.841Z,99.90
2018-07-28T16:59:35.376Z,99.90
2018-07-28T17:02:06.501Z,99.90
2018-07-28T17:04:37.001Z,99.90
2018-07-28T17:07:07.886Z,99.90
2018-07-28T17:09:38.365Z,99.90
2018-07-28T17:12:09.306Z,99.90
2018-07-28T17:14:39.776Z,99.90
2018-07-28T17:17:10.648Z,99.90
2018-07-28T17:19:41.225Z,99.90
2018-07-28T17:22:12.029Z,99.90
2018-07-28T17:24:42.541Z,99.90
2018-07-28T17:27:13.517Z,99.90
2018-07-28T17:29:44.185Z,99.90
2018-07-28T17:32:14.788Z,99.90
2018-07-28T17:34:45.553Z,99.90
2018-07-28T17:37:16.096Z,99.90
2018-07-28T17:39:46.609Z,99.90
2018-07-28T17:42:17.449Z,99.90
2018-07-28T17:44:47.986Z,99.90
2018-07-28T17:47:18.884Z,99.90
2018-07-28T17:49:49.513Z,99.90
2018-07-28T17:52:20.187Z,99.90
2018-07-28T17:54:51.357Z,99.90
2018-07-28T17:57:21.973Z,99.90
2018-07-28T17:59:52.554Z,99.90
2018-07-28T18:02:23.821Z,99.90
2018-07-28T18:04:54.530Z,99.90
2018-07-28T18:07:25.613Z,99.90
2018-07-28T18:11:15.787Z,99.90
2018-07-28T18:13:46.278Z,99.90
2018-07-28T18:16:16.983Z,99.90
2018-07-28T18:18:48.305Z,99.90
2018-07-28T18:21:18.827Z,99.90
2018-07-28T18:23:49.525Z,99.90
2018-07-28T18:26:20.061Z,99.90
2018-07-28T18:28:51.183Z,99.90
2018-07-28T18:31:22.108Z,99.90
2018-07-28T18:33:53.504Z,99.90
2018-07-28T18:36:24.363Z,99.90
2018-07-28T18:38:55.193Z,99.90
2018-07-28T18:41:25.673Z,99.90
2018-07-28T18:43:56.828Z,99.90
2018-07-28T18:46:27.329Z,99.90
2018-07-28T18:48:57.893Z,99.90
2018-07-28T18:51:28.415Z,99.90
2018-07-28T18:53:59.229Z,99.90
2018-07-28T18:56:29.782Z,99.90
2018-07-28T18:59:01.011Z,99.90
2018-07-28T19:01:31.930Z,99.90
2018-07-28T19:04:02.729Z,99.90
2018-07-28T19:06:33.296Z,99.90
2018-07-28T19:09:08.998Z,99.90
2018-07-28T19:11:39.773Z,99.90
2018-07-28T19:14:15.150Z,99.90
2018-07-28T19:20:19.137Z,99.90
2018-07-28T19:22:54.546Z,99.90
2018-07-28T19:25:25.934Z,99.90
2018-07-28T19:28:01.414Z,99.90
2018-07-28T19:30:32.261Z,99.90
2018-07-28T19:33:03.113Z,99.90
2018-07-28T19:35:38.849Z,99.90
2018-07-28T19:38:09.437Z,99.90
2018-07-28T19:40:40.324Z,99.90
2018-07-28T19:43:11.180Z,99.90
2018-07-28T19:45:41.913Z,99.90
2018-07-28T19:48:12.414Z,99.90
2018-07-28T19:50:42.950Z,99.90
2018-07-28T19:53:13.428Z,99.90
2018-07-28T19:55:44.681Z,99.90
2018-07-28T19:58:15.237Z,99.90
2018-07-28T20:03:16.583Z,99.90
2018-07-28T20:05:47.384Z,99.90
2018-07-28T20:08:18.291Z,99.90
2018-07-28T20:10:48.968Z,99.90
2018-07-28T20:13:19.993Z,99.90
2018-07-28T20:15:50.673Z,99.90
2018-07-28T20:18:21.577Z,99.90
2018-07-28T20:20:52.266Z,99.90
2018-07-28T20:23:22.816Z,99.90
2018-07-28T20:25:53.571Z,99.90
2018-07-28T20:28:24.450Z,99.90
2018-07-28T20:30:55.050Z,99.90
2018-07-28T20:33:25.676Z,99.90
2018-07-28T20:35:56.490Z,99.90
2018-07-28T20:38:27.052Z,99.90
2018-07-28T20:40:58.380Z,99.90
2018-07-28T20:43:29.040Z,99.90
2018-07-28T20:45:59.626Z,99.90
2018-07-28T20:48:31.110Z,99.90
2018-07-28T20:51:01.788Z,99.90
2018-07-28T20:53:32.374Z,99.90
2018-07-28T20:56:06.615Z,99.90
2018-07-28T20:58:38.617Z,99.90
2018-07-28T21:01:09.769Z,99.90
2018-07-28T21:03:40.331Z,99.90
2018-07-28T21:06:10.904Z,99.90
2018-07-28T21:08:41.487Z,99.90
2018-07-28T21:11:12.378Z,99.90
2018-07-28T21:13:43.937Z,99.90
2018-07-28T21:16:14.694Z,99.90
2018-07-28T21:18:45.146Z,99.90
2018-07-28T21:21:16.022Z,99.90
2018-07-28T21:23:46.489Z,99.90
2018-07-28T21:26:17.309Z,99.90
2018-07-28T21:28:47.761Z,99.90
2018-07-28T21:31:18.445Z,99.90
2018-07-28T21:33:49.436Z,99.90
2018-07-28T21:36:20.278Z,99.90
2018-07-28T21:38:50.745Z,99.90
2018-07-28T21:41:21.831Z,99.90
2018-07-28T21:43:52.355Z,99.90
2018-07-28T21:46:22.992Z,99.90
2018-07-28T21:48:54.344Z,99.90
2018-07-28T21:51:25.288Z,99.90
2018-07-28T21:53:55.784Z,99.90
2018-07-28T21:56:26.497Z,99.90
2018-07-28T21:58:57.978Z,99.90
2018-07-28T22:01:29.205Z,99.90
2018-07-28T22:04:03.005Z,99.90
2018-07-28T22:06:35.523Z,99.90
2018-07-28T22:09:07.513Z,99.90
2018-07-28T22:11:38.050Z,99.90
2018-07-28T22:14:09.198Z,99.90
2018-07-28T22:16:40.273Z,99.90
2018-07-28T22:19:11.013Z,99.90
2018-07-28T22:21:42.060Z,99.90
2018-07-28T22:24:12.973Z,99.90
2018-07-28T22:26:44.173Z,99.90
2018-07-28T22:29:15.138Z,99.90
2018-07-28T22:31:45.809Z,99.90
2018-07-28T22:34:17.053Z,99.90
2018-07-28T22:39:18.176Z,99.90
2018-07-28T22:41:49.705Z,99.90
2018-07-28T22:46:50.488Z,99.90
2018-07-28T22:49:21.710Z,99.90
2018-07-28T22:54:22.589Z,99.90
2018-07-28T22:56:53.332Z,99.90
2018-07-28T22:59:24.429Z,99.90
2018-07-28T23:01:55.421Z,99.90
2018-07-28T23:04:25.997Z,99.90
2018-07-28T23:06:56.818Z,99.90
2018-07-28T23:09:27.278Z,99.90
2018-07-28T23:11:58.290Z,99.90
2018-07-28T23:14:28.829Z,99.90
2018-07-28T23:16:59.482Z,99.90
2018-07-28T23:19:30.257Z,99.90
2018-07-28T23:22:01.195Z,99.90
2018-07-28T23:24:32.090Z,99.90
2018-07-28T23:27:02.561Z,99.90
2018-07-28T23:29:33.456Z,99.90
2018-07-28T23:32:04.355Z,99.90
2018-07-28T23:34:35.465Z,99.90
2018-07-28T23:37:06.011Z,99.90
2018-07-28T23:39:36.581Z,99.90
2018-07-28T23:42:07.260Z,99.90
2018-07-28T23:44:38.099Z,99.90
2018-07-28T23:47:08.982Z,99.90
2018-07-28T23:49:39.765Z,99.90
2018-07-28T23:52:10.461Z,99.90
2018-07-28T23:54:41.050Z,99.90
2018-07-28T23:57:12.728Z,99.90
2018-07-28T23:59:43.348Z,99.90
